sensor_id;sensor_type;location;lat;lon;timestamp;temperature;humidity
53695;DHT22;39588;51.124;7.190;2022-07-29T00:02:15;19.20;60.60
53695;DHT22;39588;51.124;7.190;2022-07-29T00:12:00;19.20;60.70
53695;DHT22;39588;51.124;7.190;2022-07-29T00:14:27;19.20;60.80
53695;DHT22;39588;51.124;7.190;2022-07-29T00:16:53;19.20;60.70
53695;DHT22;39588;51.124;7.190;2022-07-29T00:19:18;19.20;60.40
53695;DHT22;39588;51.124;7.190;2022-07-29T00:21:44;19.20;60.70
53695;DHT22;39588;51.124;7.190;2022-07-29T00:24:10;19.20;60.40
53695;DHT22;39588;51.124;7.190;2022-07-29T00:26:35;19.20;60.30
53695;DHT22;39588;51.124;7.190;2022-07-29T00:29:02;19.10;60.30
53695;DHT22;39588;51.124;7.190;2022-07-29T00:31:28;19.20;60.50
53695;DHT22;39588;51.124;7.190;2022-07-29T00:38:50;19.20;60.50
53695;DHT22;39588;51.124;7.190;2022-07-29T00:41:17;19.10;60.10
53695;DHT22;39588;51.124;7.190;2022-07-29T00:43:43;19.10;60.10
53695;DHT22;39588;51.124;7.190;2022-07-29T00:46:09;19.10;60.20
53695;DHT22;39588;51.124;7.190;2022-07-29T00:48:35;19.10;60.30
53695;DHT22;39588;51.124;7.190;2022-07-29T00:51:02;19.20;60.70
53695;DHT22;39588;51.124;7.190;2022-07-29T00:53:29;19.20;60.20
53695;DHT22;39588;51.124;7.190;2022-07-29T00:55:55;19.20;60.40
53695;DHT22;39588;51.124;7.190;2022-07-29T00:58:22;19.20;60.20
53695;DHT22;39588;51.124;7.190;2022-07-29T01:00:48;19.20;59.80
53695;DHT22;39588;51.124;7.190;2022-07-29T01:03:14;19.20;59.80
53695;DHT22;39588;51.124;7.190;2022-07-29T01:05:41;19.20;60.20
53695;DHT22;39588;51.124;7.190;2022-07-29T01:08:08;19.20;60.20
53695;DHT22;39588;51.124;7.190;2022-07-29T01:10:36;19.20;60.20
53695;DHT22;39588;51.124;7.190;2022-07-29T01:13:03;19.20;60.40
53695;DHT22;39588;51.124;7.190;2022-07-29T01:24:26;19.10;60.60
53695;DHT22;39588;51.124;7.190;2022-07-29T01:27:19;19.10;60.80
53695;DHT22;39588;51.124;7.190;2022-07-29T01:29:57;19.10;60.50
53695;DHT22;39588;51.124;7.190;2022-07-29T01:32:26;19.10;60.60
53695;DHT22;39588;51.124;7.190;2022-07-29T01:43:00;18.90;60.40
53695;DHT22;39588;51.124;7.190;2022-07-29T01:45:50;18.90;60.50
53695;DHT22;39588;51.124;7.190;2022-07-29T01:48:22;18.90;60.80
53695;DHT22;39588;51.124;7.190;2022-07-29T01:50:52;18.80;60.50
53695;DHT22;39588;51.124;7.190;2022-07-29T01:53:27;18.80;60.20
53695;DHT22;39588;51.124;7.190;2022-07-29T01:55:55;18.80;60.30
53695;DHT22;39588;51.124;7.190;2022-07-29T01:58:23;18.80;60.20
53695;DHT22;39588;51.124;7.190;2022-07-29T02:00:50;18.80;60.00
53695;DHT22;39588;51.124;7.190;2022-07-29T02:03:17;18.80;60.00
53695;DHT22;39588;51.124;7.190;2022-07-29T02:05:45;18.80;59.80
53695;DHT22;39588;51.124;7.190;2022-07-29T02:08:13;18.80;59.80
53695;DHT22;39588;51.124;7.190;2022-07-29T02:10:40;18.80;59.80
53695;DHT22;39588;51.124;7.190;2022-07-29T02:13:07;18.80;59.70
53695;DHT22;39588;51.124;7.190;2022-07-29T02:15:35;18.80;59.90
53695;DHT22;39588;51.124;7.190;2022-07-29T02:18:06;18.80;59.70
53695;DHT22;39588;51.124;7.190;2022-07-29T02:20:33;18.80;59.20
53695;DHT22;39588;51.124;7.190;2022-07-29T02:23:00;18.80;59.70
53695;DHT22;39588;51.124;7.190;2022-07-29T02:25:26;18.80;59.70
53695;DHT22;39588;51.124;7.190;2022-07-29T02:27:53;18.80;59.50
53695;DHT22;39588;51.124;7.190;2022-07-29T02:30:22;18.80;59.50
53695;DHT22;39588;51.124;7.190;2022-07-29T02:32:48;18.80;59.10
53695;DHT22;39588;51.124;7.190;2022-07-29T02:35:16;18.80;58.90
53695;DHT22;39588;51.124;7.190;2022-07-29T02:37:43;18.80;58.70
53695;DHT22;39588;51.124;7.190;2022-07-29T02:40:11;18.90;58.50
53695;DHT22;39588;51.124;7.190;2022-07-29T02:42:42;18.90;58.80
53695;DHT22;39588;51.124;7.190;2022-07-29T02:45:09;18.90;58.80
53695;DHT22;39588;51.124;7.190;2022-07-29T02:47:46;18.90;58.60
53695;DHT22;39588;51.124;7.190;2022-07-29T02:50:17;19.00;58.60
53695;DHT22;39588;51.124;7.190;2022-07-29T02:52:47;19.00;58.30
53695;DHT22;39588;51.124;7.190;2022-07-29T02:58:05;19.00;58.30
53695;DHT22;39588;51.124;7.190;2022-07-29T03:00:37;19.00;58.20
53695;DHT22;39588;51.124;7.190;2022-07-29T03:03:08;19.10;58.60
53695;DHT22;39588;51.124;7.190;2022-07-29T03:05:37;19.00;57.90
53695;DHT22;39588;51.124;7.190;2022-07-29T03:08:04;19.10;58.40
53695;DHT22;39588;51.124;7.190;2022-07-29T03:10:31;19.00;57.90
53695;DHT22;39588;51.124;7.190;2022-07-29T03:12:57;19.00;57.90
53695;DHT22;39588;51.124;7.190;2022-07-29T03:15:23;19.00;57.90
53695;DHT22;39588;51.124;7.190;2022-07-29T03:17:49;19.00;58.00
53695;DHT22;39588;51.124;7.190;2022-07-29T03:20:17;19.00;57.90
53695;DHT22;39588;51.124;7.190;2022-07-29T03:22:44;18.90;57.80
53695;DHT22;39588;51.124;7.190;2022-07-29T03:25:13;18.90;57.90
53695;DHT22;39588;51.124;7.190;2022-07-29T03:27:39;19.00;58.10
53695;DHT22;39588;51.124;7.190;2022-07-29T03:30:05;18.90;58.10
53695;DHT22;39588;51.124;7.190;2022-07-29T03:32:31;18.90;58.40
53695;DHT22;39588;51.124;7.190;2022-07-29T03:37:23;19.00;57.60
53695;DHT22;39588;51.124;7.190;2022-07-29T03:39:49;19.00;58.40
53695;DHT22;39588;51.124;7.190;2022-07-29T03:42:18;19.00;59.40
53695;DHT22;39588;51.124;7.190;2022-07-29T03:44:47;18.90;60.10
53695;DHT22;39588;51.124;7.190;2022-07-29T03:47:15;18.90;60.80
53695;DHT22;39588;51.124;7.190;2022-07-29T03:49:44;18.90;61.80
53695;DHT22;39588;51.124;7.190;2022-07-29T03:52:12;18.90;61.60
53695;DHT22;39588;51.124;7.190;2022-07-29T03:54:38;18.70;61.20
53695;DHT22;39588;51.124;7.190;2022-07-29T03:57:05;18.60;62.20
53695;DHT22;39588;51.124;7.190;2022-07-29T03:59:33;18.60;62.50
53695;DHT22;39588;51.124;7.190;2022-07-29T04:02:01;18.50;62.60
53695;DHT22;39588;51.124;7.190;2022-07-29T04:04:27;18.50;63.00
53695;DHT22;39588;51.124;7.190;2022-07-29T04:06:53;18.40;63.50
53695;DHT22;39588;51.124;7.190;2022-07-29T04:09:18;18.40;63.90
53695;DHT22;39588;51.124;7.190;2022-07-29T04:11:45;18.30;63.80
53695;DHT22;39588;51.124;7.190;2022-07-29T04:14:10;18.30;64.00
53695;DHT22;39588;51.124;7.190;2022-07-29T04:23:54;18.10;64.80
53695;DHT22;39588;51.124;7.190;2022-07-29T04:26:20;18.00;65.20
53695;DHT22;39588;51.124;7.190;2022-07-29T04:28:46;17.90;65.40
53695;DHT22;39588;51.124;7.190;2022-07-29T04:31:12;17.90;65.90
53695;DHT22;39588;51.124;7.190;2022-07-29T04:33:38;17.80;66.00
53695;DHT22;39588;51.124;7.190;2022-07-29T04:36:04;17.80;66.20
53695;DHT22;39588;51.124;7.190;2022-07-29T04:38:30;17.80;66.30
53695;DHT22;39588;51.124;7.190;2022-07-29T04:40:56;17.90;66.60
53695;DHT22;39588;51.124;7.190;2022-07-29T04:43:22;17.80;66.50
53695;DHT22;39588;51.124;7.190;2022-07-29T04:45:48;17.80;66.90
53695;DHT22;39588;51.124;7.190;2022-07-29T04:48:13;17.90;67.10
53695;DHT22;39588;51.124;7.190;2022-07-29T04:50:39;17.80;67.30
53695;DHT22;39588;51.124;7.190;2022-07-29T04:53:06;17.80;67.40
53695;DHT22;39588;51.124;7.190;2022-07-29T04:55:31;17.90;67.30
53695;DHT22;39588;51.124;7.190;2022-07-29T04:57:57;17.80;67.40
53695;DHT22;39588;51.124;7.190;2022-07-29T05:00:23;17.80;67.60
53695;DHT22;39588;51.124;7.190;2022-07-29T05:02:49;17.80;67.70
53695;DHT22;39588;51.124;7.190;2022-07-29T05:05:15;17.90;67.60
53695;DHT22;39588;51.124;7.190;2022-07-29T05:07:40;17.90;68.00
53695;DHT22;39588;51.124;7.190;2022-07-29T05:10:07;17.80;67.60
53695;DHT22;39588;51.124;7.190;2022-07-29T05:12:33;17.90;68.20
53695;DHT22;39588;51.124;7.190;2022-07-29T05:14:58;18.00;68.10
53695;DHT22;39588;51.124;7.190;2022-07-29T05:17:24;18.00;68.50
53695;DHT22;39588;51.124;7.190;2022-07-29T05:19:50;18.10;68.40
53695;DHT22;39588;51.124;7.190;2022-07-29T05:22:20;18.00;67.80
53695;DHT22;39588;51.124;7.190;2022-07-29T05:24:46;18.00;68.20
53695;DHT22;39588;51.124;7.190;2022-07-29T05:27:12;18.00;68.20
53695;DHT22;39588;51.124;7.190;2022-07-29T05:29:37;18.00;68.60
53695;DHT22;39588;51.124;7.190;2022-07-29T05:32:04;18.10;68.30
53695;DHT22;39588;51.124;7.190;2022-07-29T05:34:29;18.10;68.70
53695;DHT22;39588;51.124;7.190;2022-07-29T05:36:56;18.10;68.60
53695;DHT22;39588;51.124;7.190;2022-07-29T05:39:22;18.20;68.80
53695;DHT22;39588;51.124;7.190;2022-07-29T05:41:48;18.30;68.20
53695;DHT22;39588;51.124;7.190;2022-07-29T05:44:13;18.30;68.30
53695;DHT22;39588;51.124;7.190;2022-07-29T05:46:39;18.40;68.00
53695;DHT22;39588;51.124;7.190;2022-07-29T05:49:05;18.50;68.00
53695;DHT22;39588;51.124;7.190;2022-07-29T05:51:33;18.60;67.70
53695;DHT22;39588;51.124;7.190;2022-07-29T05:58:51;18.70;67.40
53695;DHT22;39588;51.124;7.190;2022-07-29T06:01:17;18.70;67.20
53695;DHT22;39588;51.124;7.190;2022-07-29T06:03:43;18.80;66.40
53695;DHT22;39588;51.124;7.190;2022-07-29T06:06:09;18.80;66.90
53695;DHT22;39588;51.124;7.190;2022-07-29T06:08:35;18.80;66.80
53695;DHT22;39588;51.124;7.190;2022-07-29T06:11:02;18.90;67.30
53695;DHT22;39588;51.124;7.190;2022-07-29T06:13:28;19.00;66.90
53695;DHT22;39588;51.124;7.190;2022-07-29T06:15:54;19.00;67.10
53695;DHT22;39588;51.124;7.190;2022-07-29T06:18:20;19.00;67.10
53695;DHT22;39588;51.124;7.190;2022-07-29T06:20:52;19.00;67.40
53695;DHT22;39588;51.124;7.190;2022-07-29T06:23:19;19.00;67.20
53695;DHT22;39588;51.124;7.190;2022-07-29T06:25:45;19.00;67.20
53695;DHT22;39588;51.124;7.190;2022-07-29T06:28:11;19.10;68.20
53695;DHT22;39588;51.124;7.190;2022-07-29T06:30:37;19.10;68.50
53695;DHT22;39588;51.124;7.190;2022-07-29T06:33:03;19.50;67.40
53695;DHT22;39588;51.124;7.190;2022-07-29T06:35:29;19.50;67.60
53695;DHT22;39588;51.124;7.190;2022-07-29T06:37:54;19.80;67.20
53695;DHT22;39588;51.124;7.190;2022-07-29T06:40:20;20.10;68.10
53695;DHT22;39588;51.124;7.190;2022-07-29T06:43:04;20.40;67.50
53695;DHT22;39588;51.124;7.190;2022-07-29T06:45:33;20.60;67.30
53695;DHT22;39588;51.124;7.190;2022-07-29T06:47:59;20.80;67.30
53695;DHT22;39588;51.124;7.190;2022-07-29T06:50:24;20.90;65.60
53695;DHT22;39588;51.124;7.190;2022-07-29T06:52:50;21.20;66.10
53695;DHT22;39588;51.124;7.190;2022-07-29T06:55:16;21.80;62.90
53695;DHT22;39588;51.124;7.190;2022-07-29T06:57:41;22.00;61.30
53695;DHT22;39588;51.124;7.190;2022-07-29T07:00:07;22.20;60.90
53695;DHT22;39588;51.124;7.190;2022-07-29T07:02:33;22.60;62.40
53695;DHT22;39588;51.124;7.190;2022-07-29T07:04:59;22.80;61.10
53695;DHT22;39588;51.124;7.190;2022-07-29T07:07:25;22.70;60.70
53695;DHT22;39588;51.124;7.190;2022-07-29T07:09:50;22.70;60.40
53695;DHT22;39588;51.124;7.190;2022-07-29T07:12:16;22.80;59.90
53695;DHT22;39588;51.124;7.190;2022-07-29T07:14:42;23.00;60.40
53695;DHT22;39588;51.124;7.190;2022-07-29T07:36:35;22.50;59.30
53695;DHT22;39588;51.124;7.190;2022-07-29T07:39:01;22.40;60.10
53695;DHT22;39588;51.124;7.190;2022-07-29T07:41:27;22.30;60.70
53695;DHT22;39588;51.124;7.190;2022-07-29T07:43:53;22.30;61.00
53695;DHT22;39588;51.124;7.190;2022-07-29T07:46:18;22.20;60.60
53695;DHT22;39588;51.124;7.190;2022-07-29T07:53:36;22.00;62.70
53695;DHT22;39588;51.124;7.190;2022-07-29T07:58:29;22.00;62.50
53695;DHT22;39588;51.124;7.190;2022-07-29T08:00:55;22.00;63.00
53695;DHT22;39588;51.124;7.190;2022-07-29T08:08:13;22.10;62.60
53695;DHT22;39588;51.124;7.190;2022-07-29T08:18:11;22.40;62.40
53695;DHT22;39588;51.124;7.190;2022-07-29T08:20:37;22.50;63.20
53695;DHT22;39588;51.124;7.190;2022-07-29T08:23:07;22.70;62.20
53695;DHT22;39588;51.124;7.190;2022-07-29T08:25:37;22.90;62.60
53695;DHT22;39588;51.124;7.190;2022-07-29T08:28:04;23.10;62.30
53695;DHT22;39588;51.124;7.190;2022-07-29T08:30:30;23.10;62.70
53695;DHT22;39588;51.124;7.190;2022-07-29T08:35:23;23.40;61.80
53695;DHT22;39588;51.124;7.190;2022-07-29T08:37:49;23.50;62.40
53695;DHT22;39588;51.124;7.190;2022-07-29T08:40:15;23.60;63.00
53695;DHT22;39588;51.124;7.190;2022-07-29T08:42:40;23.70;62.50
53695;DHT22;39588;51.124;7.190;2022-07-29T08:45:06;23.70;61.90
53695;DHT22;39588;51.124;7.190;2022-07-29T08:47:33;23.50;62.30
53695;DHT22;39588;51.124;7.190;2022-07-29T08:49:59;23.20;62.70
53695;DHT22;39588;51.124;7.190;2022-07-29T08:52:26;23.10;63.10
53695;DHT22;39588;51.124;7.190;2022-07-29T08:59:46;22.30;63.30
53695;DHT22;39588;51.124;7.190;2022-07-29T09:02:21;22.60;64.20
53695;DHT22;39588;51.124;7.190;2022-07-29T09:04:47;22.60;63.30
53695;DHT22;39588;51.124;7.190;2022-07-29T09:07:17;22.40;63.20
53695;DHT22;39588;51.124;7.190;2022-07-29T09:09:43;22.30;62.70
53695;DHT22;39588;51.124;7.190;2022-07-29T09:12:10;22.10;62.50
53695;DHT22;39588;51.124;7.190;2022-07-29T09:14:39;21.90;62.20
53695;DHT22;39588;51.124;7.190;2022-07-29T09:17:06;21.80;62.10
53695;DHT22;39588;51.124;7.190;2022-07-29T09:22:02;21.70;62.10
53695;DHT22;39588;51.124;7.190;2022-07-29T09:24:44;21.70;61.90
53695;DHT22;39588;51.124;7.190;2022-07-29T09:27:18;21.80;61.90
53695;DHT22;39588;51.124;7.190;2022-07-29T09:32:11;22.10;62.00
53695;DHT22;39588;51.124;7.190;2022-07-29T09:37:03;22.40;62.10
53695;DHT22;39588;51.124;7.190;2022-07-29T09:42:03;23.00;61.40
53695;DHT22;39588;51.124;7.190;2022-07-29T09:44:49;23.30;61.20
53695;DHT22;39588;51.124;7.190;2022-07-29T09:47:18;23.70;59.70
53695;DHT22;39588;51.124;7.190;2022-07-29T09:49:56;24.00;60.20
53695;DHT22;39588;51.124;7.190;2022-07-29T09:52:24;24.10;59.80
53695;DHT22;39588;51.124;7.190;2022-07-29T09:54:49;24.40;60.70
53695;DHT22;39588;51.124;7.190;2022-07-29T09:57:26;24.90;60.70
53695;DHT22;39588;51.124;7.190;2022-07-29T09:59:56;24.90;61.10
53695;DHT22;39588;51.124;7.190;2022-07-29T10:02:22;25.40;60.80
53695;DHT22;39588;51.124;7.190;2022-07-29T10:04:52;25.90;58.50
53695;DHT22;39588;51.124;7.190;2022-07-29T10:07:18;26.30;57.80
53695;DHT22;39588;51.124;7.190;2022-07-29T10:09:56;26.60;59.00
53695;DHT22;39588;51.124;7.190;2022-07-29T10:12:23;26.90;57.10
53695;DHT22;39588;51.124;7.190;2022-07-29T10:14:50;26.70;55.50
53695;DHT22;39588;51.124;7.190;2022-07-29T10:17:16;26.40;55.00
53695;DHT22;39588;51.124;7.190;2022-07-29T10:19:42;26.10;56.00
53695;DHT22;39588;51.124;7.190;2022-07-29T10:22:10;26.40;57.10
53695;DHT22;39588;51.124;7.190;2022-07-29T10:24:38;26.80;56.50
53695;DHT22;39588;51.124;7.190;2022-07-29T10:27:06;26.90;53.00
53695;DHT22;39588;51.124;7.190;2022-07-29T10:29:32;26.60;53.20
53695;DHT22;39588;51.124;7.190;2022-07-29T10:37:44;26.50;53.60
53695;DHT22;39588;51.124;7.190;2022-07-29T10:43:31;26.50;51.90
53695;DHT22;39588;51.124;7.190;2022-07-29T10:46:02;26.00;50.90
53695;DHT22;39588;51.124;7.190;2022-07-29T10:48:28;25.80;52.00
53695;DHT22;39588;51.124;7.190;2022-07-29T10:50:57;25.70;52.70
53695;DHT22;39588;51.124;7.190;2022-07-29T10:53:24;25.60;53.60
53695;DHT22;39588;51.124;7.190;2022-07-29T10:55:56;25.50;53.80
53695;DHT22;39588;51.124;7.190;2022-07-29T10:58:23;25.50;54.30
53695;DHT22;39588;51.124;7.190;2022-07-29T11:00:52;25.50;54.90
53695;DHT22;39588;51.124;7.190;2022-07-29T11:03:42;25.50;54.90
53695;DHT22;39588;51.124;7.190;2022-07-29T11:06:07;25.40;57.20
53695;DHT22;39588;51.124;7.190;2022-07-29T11:08:34;25.40;57.60
53695;DHT22;39588;51.124;7.190;2022-07-29T11:16:12;25.80;60.00
53695;DHT22;39588;51.124;7.190;2022-07-29T11:21:36;26.00;56.50
53695;DHT22;39588;51.124;7.190;2022-07-29T11:24:16;26.10;57.70
53695;DHT22;39588;51.124;7.190;2022-07-29T11:26:42;26.30;59.20
53695;DHT22;39588;51.124;7.190;2022-07-29T11:29:20;26.30;59.80
53695;DHT22;39588;51.124;7.190;2022-07-29T11:31:52;26.40;58.80
53695;DHT22;39588;51.124;7.190;2022-07-29T11:39:33;25.90;60.50
53695;DHT22;39588;51.124;7.190;2022-07-29T11:44:58;25.70;61.60
53695;DHT22;39588;51.124;7.190;2022-07-29T11:47:25;25.80;60.60
53695;DHT22;39588;51.124;7.190;2022-07-29T11:49:53;25.90;61.20
53695;DHT22;39588;51.124;7.190;2022-07-29T11:52:19;26.10;61.30
53695;DHT22;39588;51.124;7.190;2022-07-29T11:54:48;26.20;60.00
53695;DHT22;39588;51.124;7.190;2022-07-29T11:57:20;26.10;60.80
53695;DHT22;39588;51.124;7.190;2022-07-29T11:59:47;25.90;59.60
53695;DHT22;39588;51.124;7.190;2022-07-29T12:02:13;25.60;59.70
53695;DHT22;39588;51.124;7.190;2022-07-29T12:04:52;25.50;60.00
53695;DHT22;39588;51.124;7.190;2022-07-29T12:07:32;25.40;60.80
53695;DHT22;39588;51.124;7.190;2022-07-29T12:09:58;25.60;60.90
53695;DHT22;39588;51.124;7.190;2022-07-29T12:12:25;25.60;58.60
53695;DHT22;39588;51.124;7.190;2022-07-29T12:14:50;25.60;60.40
53695;DHT22;39588;51.124;7.190;2022-07-29T12:17:30;25.80;61.30
53695;DHT22;39588;51.124;7.190;2022-07-29T12:19:58;25.90;60.00
53695;DHT22;39588;51.124;7.190;2022-07-29T12:22:32;25.80;59.10
53695;DHT22;39588;51.124;7.190;2022-07-29T12:25:13;25.80;59.40
53695;DHT22;39588;51.124;7.190;2022-07-29T12:27:44;25.80;59.20
53695;DHT22;39588;51.124;7.190;2022-07-29T12:30:12;25.80;60.00
53695;DHT22;39588;51.124;7.190;2022-07-29T12:32:40;25.70;58.40
53695;DHT22;39588;51.124;7.190;2022-07-29T12:35:08;25.80;59.90
53695;DHT22;39588;51.124;7.190;2022-07-29T12:37:35;25.80;58.70
53695;DHT22;39588;51.124;7.190;2022-07-29T12:40:06;25.70;59.90
53695;DHT22;39588;51.124;7.190;2022-07-29T12:42:33;25.70;58.80
53695;DHT22;39588;51.124;7.190;2022-07-29T12:44:58;25.60;58.50
53695;DHT22;39588;51.124;7.190;2022-07-29T12:47:24;25.40;58.60
53695;DHT22;39588;51.124;7.190;2022-07-29T12:49:51;25.30;57.90
53695;DHT22;39588;51.124;7.190;2022-07-29T12:52:34;25.50;59.60
53695;DHT22;39588;51.124;7.190;2022-07-29T12:55:00;25.30;58.20
53695;DHT22;39588;51.124;7.190;2022-07-29T12:57:26;25.20;58.40
53695;DHT22;39588;51.124;7.190;2022-07-29T13:00:09;25.00;58.80
53695;DHT22;39588;51.124;7.190;2022-07-29T13:02:37;25.10;59.90
53695;DHT22;39588;51.124;7.190;2022-07-29T13:05:05;25.10;58.80
53695;DHT22;39588;51.124;7.190;2022-07-29T13:07:33;25.10;58.20
53695;DHT22;39588;51.124;7.190;2022-07-29T13:10:18;25.20;58.30
53695;DHT22;39588;51.124;7.190;2022-07-29T13:15:28;25.20;57.50
53695;DHT22;39588;51.124;7.190;2022-07-29T13:17:55;25.20;56.80
53695;DHT22;39588;51.124;7.190;2022-07-29T13:20:24;25.20;57.10
53695;DHT22;39588;51.124;7.190;2022-07-29T13:22:50;25.20;56.30
53695;DHT22;39588;51.124;7.190;2022-07-29T13:25:28;24.90;56.70
53695;DHT22;39588;51.124;7.190;2022-07-29T13:27:54;24.80;56.80
53695;DHT22;39588;51.124;7.190;2022-07-29T13:30:21;24.70;56.70
53695;DHT22;39588;51.124;7.190;2022-07-29T13:32:47;24.70;58.20
53695;DHT22;39588;51.124;7.190;2022-07-29T13:35:13;24.80;57.30
53695;DHT22;39588;51.124;7.190;2022-07-29T13:37:39;24.90;56.90
53695;DHT22;39588;51.124;7.190;2022-07-29T13:40:06;25.00;57.00
53695;DHT22;39588;51.124;7.190;2022-07-29T13:42:33;25.10;55.90
53695;DHT22;39588;51.124;7.190;2022-07-29T13:45:00;25.10;56.80
53695;DHT22;39588;51.124;7.190;2022-07-29T13:47:26;25.10;55.70
53695;DHT22;39588;51.124;7.190;2022-07-29T13:49:51;25.10;55.10
53695;DHT22;39588;51.124;7.190;2022-07-29T13:52:18;25.20;54.80
53695;DHT22;39588;51.124;7.190;2022-07-29T13:54:44;25.30;55.10
53695;DHT22;39588;51.124;7.190;2022-07-29T13:57:11;25.40;55.60
53695;DHT22;39588;51.124;7.190;2022-07-29T13:59:37;25.40;55.50
53695;DHT22;39588;51.124;7.190;2022-07-29T14:02:03;25.30;55.70
53695;DHT22;39588;51.124;7.190;2022-07-29T14:04:29;25.40;56.80
53695;DHT22;39588;51.124;7.190;2022-07-29T14:06:54;25.50;56.30
53695;DHT22;39588;51.124;7.190;2022-07-29T14:09:20;25.60;56.60
53695;DHT22;39588;51.124;7.190;2022-07-29T14:11:45;25.50;56.30
53695;DHT22;39588;51.124;7.190;2022-07-29T14:14:14;25.40;56.40
53695;DHT22;39588;51.124;7.190;2022-07-29T14:16:40;25.40;57.80
53695;DHT22;39588;51.124;7.190;2022-07-29T14:19:06;25.50;56.50
53695;DHT22;39588;51.124;7.190;2022-07-29T14:21:32;25.40;57.30
53695;DHT22;39588;51.124;7.190;2022-07-29T14:23:58;25.40;56.80
53695;DHT22;39588;51.124;7.190;2022-07-29T14:26:23;25.40;55.90
53695;DHT22;39588;51.124;7.190;2022-07-29T14:28:49;25.40;56.40
53695;DHT22;39588;51.124;7.190;2022-07-29T14:31:16;25.20;57.20
53695;DHT22;39588;51.124;7.190;2022-07-29T14:33:42;25.20;56.90
53695;DHT22;39588;51.124;7.190;2022-07-29T14:36:08;25.10;57.00
53695;DHT22;39588;51.124;7.190;2022-07-29T14:38:34;25.10;58.20
53695;DHT22;39588;51.124;7.190;2022-07-29T14:41:00;25.20;58.10
53695;DHT22;39588;51.124;7.190;2022-07-29T14:43:26;25.30;57.60
53695;DHT22;39588;51.124;7.190;2022-07-29T14:45:52;25.20;57.20
53695;DHT22;39588;51.124;7.190;2022-07-29T14:48:17;25.20;57.80
53695;DHT22;39588;51.124;7.190;2022-07-29T14:50:43;25.10;57.60
53695;DHT22;39588;51.124;7.190;2022-07-29T14:53:09;25.10;57.80
53695;DHT22;39588;51.124;7.190;2022-07-29T14:55:34;25.10;58.50
53695;DHT22;39588;51.124;7.190;2022-07-29T14:58:00;25.00;57.90
53695;DHT22;39588;51.124;7.190;2022-07-29T15:00:26;24.90;57.80
53695;DHT22;39588;51.124;7.190;2022-07-29T15:02:52;24.80;57.80
53695;DHT22;39588;51.124;7.190;2022-07-29T15:05:18;24.80;58.10
53695;DHT22;39588;51.124;7.190;2022-07-29T15:07:43;24.90;57.70
53695;DHT22;39588;51.124;7.190;2022-07-29T15:10:09;24.90;58.40
53695;DHT22;39588;51.124;7.190;2022-07-29T15:12:35;24.90;57.90
53695;DHT22;39588;51.124;7.190;2022-07-29T15:15:01;24.80;57.90
53695;DHT22;39588;51.124;7.190;2022-07-29T15:17:26;24.80;57.90
53695;DHT22;39588;51.124;7.190;2022-07-29T15:19:52;24.70;57.70
53695;DHT22;39588;51.124;7.190;2022-07-29T15:22:18;24.70;57.80
53695;DHT22;39588;51.124;7.190;2022-07-29T15:24:43;24.70;57.70
53695;DHT22;39588;51.124;7.190;2022-07-29T15:27:10;24.70;57.30
53695;DHT22;39588;51.124;7.190;2022-07-29T15:29:40;24.60;57.90
53695;DHT22;39588;51.124;7.190;2022-07-29T15:32:06;24.60;57.50
53695;DHT22;39588;51.124;7.190;2022-07-29T15:34:33;24.60;57.60
53695;DHT22;39588;51.124;7.190;2022-07-29T15:36:58;24.60;57.00
53695;DHT22;39588;51.124;7.190;2022-07-29T15:39:24;24.50;56.90
53695;DHT22;39588;51.124;7.190;2022-07-29T15:41:50;24.50;57.50
53695;DHT22;39588;51.124;7.190;2022-07-29T15:44:16;24.50;57.50
53695;DHT22;39588;51.124;7.190;2022-07-29T15:46:42;24.50;57.60
53695;DHT22;39588;51.124;7.190;2022-07-29T15:49:26;24.50;57.00
53695;DHT22;39588;51.124;7.190;2022-07-29T15:52:00;24.50;57.50
53695;DHT22;39588;51.124;7.190;2022-07-29T15:54:26;24.40;57.40
53695;DHT22;39588;51.124;7.190;2022-07-29T15:56:52;24.50;57.80
53695;DHT22;39588;51.124;7.190;2022-07-29T15:59:19;24.50;57.10
53695;DHT22;39588;51.124;7.190;2022-07-29T16:01:45;24.50;57.20
53695;DHT22;39588;51.124;7.190;2022-07-29T16:04:10;24.50;57.50
53695;DHT22;39588;51.124;7.190;2022-07-29T16:06:36;24.40;57.40
53695;DHT22;39588;51.124;7.190;2022-07-29T16:09:01;24.30;57.10
53695;DHT22;39588;51.124;7.190;2022-07-29T16:11:27;24.10;57.20
53695;DHT22;39588;51.124;7.190;2022-07-29T16:13:53;23.90;57.80
53695;DHT22;39588;51.124;7.190;2022-07-29T16:16:18;23.80;57.90
53695;DHT22;39588;51.124;7.190;2022-07-29T16:18:45;23.70;58.00
53695;DHT22;39588;51.124;7.190;2022-07-29T16:21:11;23.70;58.20
53695;DHT22;39588;51.124;7.190;2022-07-29T16:23:38;23.70;58.20
53695;DHT22;39588;51.124;7.190;2022-07-29T16:26:05;23.80;58.00
53695;DHT22;39588;51.124;7.190;2022-07-29T16:28:31;23.90;58.50
53695;DHT22;39588;51.124;7.190;2022-07-29T16:33:26;24.00;58.60
53695;DHT22;39588;51.124;7.190;2022-07-29T16:35:52;24.10;59.50
53695;DHT22;39588;51.124;7.190;2022-07-29T16:38:18;24.10;59.70
53695;DHT22;39588;51.124;7.190;2022-07-29T16:40:44;24.20;59.90
53695;DHT22;39588;51.124;7.190;2022-07-29T16:43:10;24.20;60.50
53695;DHT22;39588;51.124;7.190;2022-07-29T16:45:35;24.20;60.50
53695;DHT22;39588;51.124;7.190;2022-07-29T16:48:02;24.20;61.30
53695;DHT22;39588;51.124;7.190;2022-07-29T16:50:28;24.20;60.90
53695;DHT22;39588;51.124;7.190;2022-07-29T16:52:55;24.10;60.40
53695;DHT22;39588;51.124;7.190;2022-07-29T16:55:20;24.00;61.20
53695;DHT22;39588;51.124;7.190;2022-07-29T16:57:46;23.80;60.40
53695;DHT22;39588;51.124;7.190;2022-07-29T17:00:13;23.80;60.90
53695;DHT22;39588;51.124;7.190;2022-07-29T17:02:39;23.80;61.30
53695;DHT22;39588;51.124;7.190;2022-07-29T17:05:08;23.70;61.70
53695;DHT22;39588;51.124;7.190;2022-07-29T17:07:35;23.60;61.60
53695;DHT22;39588;51.124;7.190;2022-07-29T17:10:01;23.60;62.00
53695;DHT22;39588;51.124;7.190;2022-07-29T17:12:30;23.60;62.10
53695;DHT22;39588;51.124;7.190;2022-07-29T17:14:56;23.60;62.10
53695;DHT22;39588;51.124;7.190;2022-07-29T17:17:21;19.90;58.70
53695;DHT22;39588;51.124;7.190;2022-07-29T17:19:47;23.50;61.90
53695;DHT22;39588;51.124;7.190;2022-07-29T17:22:12;23.50;62.30
53695;DHT22;39588;51.124;7.190;2022-07-29T17:24:38;23.30;62.10
53695;DHT22;39588;51.124;7.190;2022-07-29T17:27:04;23.20;62.30
53695;DHT22;39588;51.124;7.190;2022-07-29T17:29:30;23.00;62.40
53695;DHT22;39588;51.124;7.190;2022-07-29T17:31:56;22.90;62.50
53695;DHT22;39588;51.124;7.190;2022-07-29T17:34:23;22.90;63.40
53695;DHT22;39588;51.124;7.190;2022-07-29T17:36:49;22.90;62.60
53695;DHT22;39588;51.124;7.190;2022-07-29T17:39:15;23.00;63.50
53695;DHT22;39588;51.124;7.190;2022-07-29T17:41:41;23.10;63.00
53695;DHT22;39588;51.124;7.190;2022-07-29T17:44:09;23.20;62.80
53695;DHT22;39588;51.124;7.190;2022-07-29T17:46:35;21.00;60.40